createdAt,value
2023-05-28T00:01:25.779Z,5.22
2023-05-28T00:06:27.531Z,5.95
2023-05-28T00:11:29.214Z,5.70
2023-05-28T00:16:31.004Z,5.97
2023-05-28T00:21:34.405Z,5.57
2023-05-28T00:26:38.122Z,5.35
2023-05-28T00:31:39.903Z,4.82
2023-05-28T00:36:41.643Z,5.88
2023-05-28T00:41:43.653Z,6.22
2023-05-28T00:46:46.748Z,5.63
2023-05-28T00:51:48.503Z,5.40
2023-05-28T00:56:52.196Z,5.90
2023-05-28T01:01:54.724Z,4.78
2023-05-28T01:06:58.123Z,6.15
2023-05-28T01:12:00.634Z,5.55
2023-05-28T01:17:02.378Z,6.03
2023-05-28T01:22:06.001Z,6.47
2023-05-28T01:27:08.291Z,5.55
2023-05-28T01:32:09.992Z,6.07
2023-05-28T01:37:17.233Z,5.68
2023-05-28T01:42:19.481Z,4.95
2023-05-28T01:47:22.137Z,5.90
2023-05-28T01:52:23.941Z,6.05
2023-05-28T01:57:25.812Z,5.43
2023-05-28T02:02:28.015Z,5.43
2023-05-28T02:07:29.778Z,6.28
2023-05-28T02:12:31.525Z,5.57
2023-05-28T02:17:33.403Z,4.78
2023-05-28T02:22:35.157Z,5.20
2023-05-28T02:27:37.015Z,4.93
2023-05-28T02:32:38.810Z,5.35
2023-05-28T02:37:40.546Z,5.82
2023-05-28T02:42:45.634Z,4.65
2023-05-28T02:47:48.976Z,5.05
2023-05-28T02:52:52.987Z,5.50
2023-05-28T02:57:54.708Z,5.57
2023-05-28T03:02:57.686Z,5.40
2023-05-28T03:07:59.969Z,5.75
2023-05-28T03:13:03.006Z,6.80
2023-05-28T03:18:06.875Z,6.28
2023-05-28T03:23:12.722Z,5.93
2023-05-28T03:28:33.453Z,6.63
2023-05-28T03:33:51.632Z,5.78
2023-05-28T03:38:53.469Z,5.85
2023-05-28T03:43:58.096Z,6.53
2023-05-28T03:48:59.964Z,5.80
2023-05-28T03:54:02.921Z,5.43
2023-05-28T03:59:04.812Z,5.38
2023-05-28T04:04:06.852Z,5.30
2023-05-28T04:09:09.701Z,5.38
2023-05-28T04:14:11.666Z,5.65
2023-05-28T04:19:13.415Z,5.38
2023-05-28T04:24:15.279Z,4.93
2023-05-28T04:29:17.003Z,6.20
2023-05-28T04:34:18.826Z,5.00
2023-05-28T04:39:22.745Z,5.80
2023-05-28T04:44:27.080Z,5.22
2023-05-28T04:49:30.686Z,4.88
2023-05-28T04:54:32.743Z,4.68
2023-05-28T04:59:36.088Z,4.25
2023-05-28T05:04:37.966Z,4.90
2023-05-28T05:09:40.477Z,5.20
2023-05-28T05:14:42.514Z,4.25
2023-05-28T05:19:44.663Z,4.40
2023-05-28T05:24:49.312Z,4.38
2023-05-28T05:29:51.611Z,4.38
2023-05-28T05:34:53.724Z,4.50
2023-05-28T05:40:01.428Z,4.07
2023-05-28T05:45:22.822Z,4.72
2023-05-28T05:50:27.090Z,4.15
2023-05-28T05:55:29.762Z,4.32
2023-05-28T06:00:31.904Z,4.05
2023-05-28T06:05:37.024Z,3.60
2023-05-28T06:10:59.014Z,3.78
2023-05-28T06:16:01.118Z,3.42
2023-05-28T06:21:04.590Z,3.95
2023-05-28T06:26:08.910Z,3.70
2023-05-28T06:31:11.299Z,3.72
2023-05-28T06:36:13.706Z,4.03
2023-05-28T06:41:17.164Z,3.38
2023-05-28T06:46:23.756Z,3.60
2023-05-28T06:51:26.096Z,3.50
2023-05-28T06:56:28.794Z,3.33
2023-05-28T07:01:50.178Z,3.80
2023-05-28T07:07:16.538Z,2.97
2023-05-28T07:12:19.614Z,2.83
2023-05-28T07:17:28.589Z,3.40
2023-05-28T07:22:30.757Z,3.20
2023-05-28T07:27:32.802Z,2.85
2023-05-28T07:32:35.024Z,2.92
2023-05-28T07:37:39.849Z,3.45
2023-05-28T07:42:42.752Z,2.97
2023-05-28T07:47:47.097Z,3.05
2023-05-28T07:53:09.054Z,3.05
2023-05-28T07:58:15.504Z,2.80
2023-05-28T08:03:20.881Z,3.05
2023-05-28T08:08:25.104Z,2.97
2023-05-28T08:13:27.228Z,2.25
2023-05-28T08:18:31.079Z,2.22
2023-05-28T08:23:35.717Z,2.10
2023-05-28T08:28:40.236Z,2.40
2023-05-28T08:33:42.500Z,1.90
2023-05-28T08:38:44.831Z,2.40
2023-05-28T08:43:48.927Z,2.17
2023-05-28T08:48:52.308Z,2.38
2023-05-28T08:53:55.653Z,2.22
2023-05-28T08:59:06.242Z,2.00
2023-05-28T09:04:10.114Z,1.70
2023-05-28T09:09:16.090Z,1.52
2023-05-28T09:14:24.799Z,1.65
2023-05-28T09:19:29.617Z,1.80
2023-05-28T09:24:33.474Z,2.08
2023-05-28T09:35:31.691Z,1.70
2023-05-28T09:40:40.549Z,1.73
2023-05-28T09:45:44.600Z,1.80
2023-05-28T09:50:53.350Z,1.77
2023-05-28T09:56:04.363Z,1.60
2023-05-28T10:01:16.301Z,1.83
2023-05-28T10:06:28.805Z,1.70
2023-05-28T10:11:41.865Z,1.80
2023-05-28T10:16:51.523Z,1.70
2023-05-28T10:21:56.714Z,2.58
2023-05-28T10:26:58.555Z,1.92
2023-05-28T10:32:01.902Z,1.70
2023-05-28T10:37:08.138Z,1.60
2023-05-28T10:42:14.415Z,2.25
2023-05-28T10:47:18.293Z,1.73
2023-05-28T10:52:23.341Z,1.63
2023-05-28T10:57:25.115Z,2.03
2023-05-28T11:02:29.120Z,1.67
2023-05-28T11:07:31.697Z,1.60
2023-05-28T11:12:36.986Z,1.75
2023-05-28T11:17:43.980Z,1.80
2023-05-28T11:22:46.045Z,1.70
2023-05-28T11:27:48.129Z,1.70
2023-05-28T11:32:50.776Z,1.80
2023-05-28T11:37:54.227Z,1.50
2023-05-28T11:42:59.764Z,1.60
2023-05-28T11:48:01.689Z,1.65
2023-05-28T11:53:04.617Z,1.40
2023-05-28T11:58:06.938Z,2.10
2023-05-28T12:03:12.070Z,1.60
2023-05-28T12:08:13.947Z,1.55
2023-05-28T12:13:16.405Z,1.65
2023-05-28T12:18:21.619Z,1.48
2023-05-28T12:23:23.349Z,1.60
2023-05-28T12:28:25.874Z,1.80
2023-05-28T12:33:27.910Z,1.90
2023-05-28T12:38:29.674Z,1.90
2023-05-28T12:43:31.498Z,2.10
2023-05-28T12:48:33.262Z,1.80
2023-05-28T12:53:35.060Z,1.60
2023-05-28T12:58:36.775Z,1.75
2023-05-28T13:03:38.958Z,1.98
2023-05-28T13:08:40.727Z,1.50
2023-05-28T13:13:42.475Z,1.90
2023-05-28T13:18:46.016Z,1.67
2023-05-28T13:23:47.839Z,2.00
2023-05-28T13:28:49.648Z,1.70
2023-05-28T13:33:51.527Z,1.52
2023-05-28T13:38:55.158Z,1.63
2023-05-28T13:43:57.199Z,1.95
2023-05-28T13:48:58.925Z,2.10
2023-05-28T13:54:00.682Z,1.63
2023-05-28T13:59:02.594Z,1.70
2023-05-28T14:04:04.725Z,1.95
2023-05-28T14:09:06.752Z,1.50
2023-05-28T14:14:08.491Z,1.88
2023-05-28T14:19:10.458Z,1.50
2023-05-28T14:24:12.240Z,1.60
2023-05-28T14:29:14.209Z,1.70
2023-05-28T14:34:15.994Z,1.70
2023-05-28T14:39:17.733Z,1.70
2023-05-28T14:44:19.462Z,1.70
2023-05-28T14:49:21.321Z,1.60
2023-05-28T14:54:24.014Z,1.83
2023-05-28T14:59:26.787Z,2.00
2023-05-28T15:04:28.491Z,1.70
2023-05-28T15:09:30.230Z,1.73
2023-05-28T15:14:32.117Z,1.80
2023-05-28T15:19:35.597Z,1.67
2023-05-28T15:24:38.328Z,1.95
2023-05-28T15:29:45.321Z,1.70
2023-05-28T15:34:47.164Z,1.50
2023-05-28T15:39:49.227Z,1.50
2023-05-28T15:44:51.198Z,1.48
2023-05-28T15:49:53.007Z,1.77
2023-05-28T15:54:54.921Z,1.73
2023-05-28T15:59:56.907Z,1.75
2023-05-28T16:04:58.926Z,1.70
2023-05-28T16:10:00.874Z,1.52
2023-05-28T16:15:07.204Z,1.60
2023-05-28T16:20:13.265Z,1.80
2023-05-28T16:25:15.578Z,2.15
2023-05-28T16:30:18.448Z,1.67
2023-05-28T16:35:20.762Z,2.40
2023-05-28T16:40:22.925Z,1.70
2023-05-28T16:45:24.970Z,1.65
2023-05-28T16:50:27.008Z,1.65
2023-05-28T16:55:29.014Z,1.83
2023-05-28T17:00:32.101Z,1.65
2023-05-28T17:05:34.225Z,1.75
2023-05-28T17:10:36.067Z,1.90
2023-05-28T17:15:38.019Z,1.75
2023-05-28T17:20:40.072Z,1.55
2023-05-28T17:25:42.083Z,1.52
2023-05-28T17:30:43.938Z,2.08
2023-05-28T17:35:45.734Z,1.70
2023-05-28T17:40:49.050Z,1.80
2023-05-28T17:45:54.952Z,1.83
2023-05-28T17:55:59.328Z,1.77
2023-05-28T18:01:01.876Z,1.67
2023-05-28T18:06:04.552Z,1.83
2023-05-28T18:11:06.477Z,2.05
2023-05-28T18:16:08.554Z,1.85
2023-05-28T18:21:11.932Z,1.98
2023-05-28T18:26:14.127Z,2.05
2023-05-28T18:31:16.164Z,1.95
2023-05-28T18:36:18.000Z,2.33
2023-05-28T18:41:19.887Z,2.00
2023-05-28T18:46:21.857Z,2.20
2023-05-28T18:51:24.311Z,2.40
2023-05-28T18:56:27.642Z,2.22
2023-05-28T19:01:32.970Z,2.97
2023-05-28T19:06:37.792Z,2.63
2023-05-28T19:11:39.743Z,3.55
2023-05-28T19:16:41.645Z,2.88
2023-05-28T19:21:43.653Z,3.55
2023-05-28T19:26:45.659Z,3.97
2023-05-28T19:31:47.446Z,4.10
2023-05-28T19:36:50.518Z,4.40
2023-05-28T19:41:52.474Z,4.75
2023-05-28T19:46:55.508Z,4.72
2023-05-28T19:51:57.830Z,5.30
2023-05-28T19:56:59.886Z,4.68
2023-05-28T20:02:01.811Z,5.40
2023-05-28T20:07:03.659Z,5.07
2023-05-28T20:12:05.703Z,4.63
2023-05-28T20:17:10.076Z,4.50
2023-05-28T20:22:12.142Z,5.32
2023-05-28T20:27:14.050Z,4.05
2023-05-28T20:32:15.778Z,4.80
2023-05-28T20:37:17.902Z,3.97
2023-05-28T20:42:20.107Z,3.72
2023-05-28T20:47:22.153Z,4.25
2023-05-28T20:52:24.347Z,3.72
2023-05-28T20:57:49.444Z,4.35
2023-05-28T21:02:56.824Z,4.82
2023-05-28T21:07:58.941Z,4.20
2023-05-28T21:13:00.945Z,4.03
2023-05-28T21:18:02.692Z,5.65
2023-05-28T21:23:04.473Z,5.85
2023-05-28T21:28:07.525Z,5.32
2023-05-28T21:33:09.346Z,5.75
2023-05-28T21:38:11.156Z,5.82
2023-05-28T21:43:13.068Z,5.75
2023-05-28T21:48:15.249Z,5.65
2023-05-28T21:53:17.233Z,5.32
2023-05-28T21:58:19.207Z,5.20
2023-05-28T22:03:21.071Z,6.03
2023-05-28T22:08:22.874Z,5.97
2023-05-28T22:13:26.137Z,5.18
2023-05-28T22:18:27.806Z,5.78
2023-05-28T22:23:29.738Z,5.30
2023-05-28T22:28:31.493Z,4.68
2023-05-28T22:33:33.282Z,6.32
2023-05-28T22:38:36.354Z,5.78
2023-05-28T22:43:38.105Z,5.15
2023-05-28T22:48:40.629Z,5.88
2023-05-28T22:53:42.461Z,5.25
2023-05-28T22:58:44.228Z,6.05
2023-05-28T23:03:46.536Z,5.68
2023-05-28T23:08:48.354Z,5.75
2023-05-28T23:13:50.105Z,5.50
2023-05-28T23:18:53.080Z,4.97
2023-05-28T23:23:54.982Z,5.20
2023-05-28T23:28:56.751Z,4.82
2023-05-28T23:33:58.591Z,5.00
2023-05-28T23:39:00.489Z,5.05
2023-05-28T23:44:02.214Z,4.68
2023-05-28T23:49:04.451Z,4.10
2023-05-28T23:54:06.319Z,4.80
2023-05-28T23:59:08.634Z,4.28
